createdAt,value
2022-12-25T09:57:28.411Z,71.40
2022-12-25T09:59:56.868Z,72.88
2022-12-25T10:03:05.734Z,72.88
2022-12-25T10:06:09.738Z,56.33
2022-12-25T10:08:55.139Z,51.40
2022-12-25T10:11:50.512Z,66.90
2022-12-25T10:14:46.092Z,49.63
2022-12-25T10:17:56.603Z,53.10
2022-12-25T10:20:30.031Z,53.63
2022-12-25T10:23:01.840Z,67.80
2022-12-25T10:25:31.926Z,49.38
2022-12-25T10:28:31.945Z,78.55
2022-12-25T10:31:16.149Z,65.22
2022-12-25T10:33:44.230Z,98.68
2022-12-25T10:36:11.956Z,118.78
2022-12-25T10:38:39.635Z,79.25
2022-12-25T10:41:21.391Z,50.00
2022-12-25T10:43:57.006Z,27.70
2022-12-25T10:46:28.724Z,28.50
2022-12-25T10:49:02.939Z,38.65
2022-12-25T10:51:34.852Z,29.23
2022-12-25T10:54:19.358Z,52.17
2022-12-25T10:57:00.328Z,31.52
2022-12-25T10:59:35.707Z,93.35
2022-12-25T11:02:39.460Z,121.45
2022-12-25T11:05:23.446Z,57.28
2022-12-25T11:07:54.373Z,78.25
2022-12-25T11:10:29.080Z,147.45
2022-12-25T11:12:58.136Z,380.45
2022-12-25T11:15:42.690Z,88.18
2022-12-25T11:18:27.807Z,33.30
2022-12-25T11:21:16.060Z,13.98
2022-12-25T11:27:06.805Z,11.07
2022-12-25T11:29:50.655Z,12.88
2022-12-25T11:32:30.015Z,8.15
2022-12-25T11:34:59.281Z,27.33
2022-12-25T11:37:46.480Z,25.48
2022-12-25T11:40:19.510Z,47.38
2022-12-25T11:43:10.985Z,31.92
2022-12-25T11:45:55.048Z,20.63
2022-12-25T11:48:33.980Z,12.00
2022-12-25T11:51:05.798Z,16.85
2022-12-25T11:53:47.955Z,15.57
2022-12-25T11:56:21.817Z,15.57
2022-12-25T11:59:11.477Z,13.52
2022-12-25T12:01:55.018Z,9.80
2022-12-25T12:04:42.334Z,10.50
2022-12-25T12:07:29.370Z,13.25
2022-12-25T12:10:22.646Z,7.18
2022-12-25T12:13:11.137Z,14.40
2022-12-25T12:15:50.477Z,11.23
2022-12-25T12:18:25.663Z,25.15
2022-12-25T12:21:17.877Z,48.40
2022-12-25T12:24:05.420Z,67.88
2022-12-25T12:26:38.245Z,102.82
2022-12-25T12:29:21.946Z,64.50
2022-12-25T12:31:51.633Z,18.88
2022-12-25T12:34:23.663Z,282.70
2022-12-25T12:37:22.903Z,89.85
2022-12-25T12:39:55.149Z,259.48
2022-12-25T12:42:28.743Z,276.00
2022-12-25T12:45:07.353Z,138.63
2022-12-25T12:47:44.749Z,62.72
2022-12-25T12:50:29.667Z,28.98
2022-12-25T12:53:02.812Z,40.50
2022-12-25T12:55:34.833Z,19.88
2022-12-25T12:58:06.454Z,104.75
2022-12-25T13:00:55.660Z,213.70
2022-12-25T13:03:49.025Z,112.82
2022-12-25T13:06:49.375Z,69.65
2022-12-25T13:09:49.301Z,49.42
2022-12-25T13:12:18.115Z,26.98
2022-12-25T13:14:47.975Z,14.48
2022-12-25T13:17:23.193Z,21.67
2022-12-25T13:20:00.282Z,45.80
2022-12-25T13:22:34.767Z,18.98
2022-12-25T13:25:08.994Z,55.50
2022-12-25T13:27:36.865Z,125.43
2022-12-25T13:30:20.975Z,267.85
2022-12-25T13:32:49.408Z,179.85
2022-12-25T13:35:18.842Z,143.73
2022-12-25T13:37:47.956Z,78.10
2022-12-25T13:40:28.134Z,68.20
2022-12-25T13:43:02.093Z,41.67
2022-12-25T13:45:31.387Z,35.30
2022-12-25T13:48:16.206Z,97.07
2022-12-25T13:50:48.578Z,176.25
2022-12-25T13:53:18.436Z,114.95
2022-12-25T13:55:53.179Z,159.32
2022-12-25T13:58:30.858Z,101.25
2022-12-25T14:01:01.860Z,99.90
2022-12-25T14:03:37.413Z,70.60
2022-12-25T14:06:25.346Z,67.18
2022-12-25T14:08:56.299Z,78.22
2022-12-25T14:11:31.472Z,188.80
2022-12-25T14:14:16.068Z,198.30
2022-12-25T14:16:48.835Z,164.60
2022-12-25T14:19:34.446Z,186.18
2022-12-25T14:22:21.197Z,108.28
2022-12-25T14:24:49.621Z,58.08
2022-12-25T14:27:24.801Z,51.72
2022-12-25T14:29:58.344Z,41.42
2022-12-25T14:32:31.521Z,39.42
2022-12-25T14:35:03.664Z,57.35
2022-12-25T14:37:34.407Z,76.90
2022-12-25T14:40:24.323Z,70.38
2022-12-25T14:43:06.494Z,52.40
2022-12-25T14:45:40.264Z,70.35
2022-12-25T14:48:25.537Z,61.80
2022-12-25T14:51:15.284Z,42.70
2022-12-25T14:54:06.490Z,33.25
2022-12-25T14:56:47.312Z,25.38
2022-12-25T14:59:26.460Z,38.22
2022-12-25T15:02:05.039Z,52.40
2022-12-25T15:04:34.341Z,58.67
2022-12-25T15:07:09.672Z,65.20
2022-12-25T15:09:37.977Z,49.03
2022-12-25T15:12:07.227Z,37.15
2022-12-25T15:14:38.849Z,37.92
2022-12-25T15:17:07.325Z,33.08
2022-12-25T15:19:41.448Z,26.60
2022-12-25T15:22:13.342Z,60.95
2022-12-25T15:24:41.064Z,76.45
2022-12-25T15:27:18.397Z,106.05
2022-12-25T15:30:09.333Z,123.18
2022-12-25T15:32:33.666Z,120.20
2022-12-25T15:35:01.261Z,116.00
2022-12-25T15:37:31.615Z,119.68
2022-12-25T15:40:00.088Z,101.57
2022-12-25T15:42:27.886Z,101.18
2022-12-25T15:44:55.564Z,503.27
2022-12-25T15:47:23.294Z,807.45
2022-12-25T15:49:50.980Z,927.42
2022-12-25T15:52:18.781Z,628.17
2022-12-25T15:54:46.792Z,624.70
2022-12-25T15:57:21.076Z,539.45
2022-12-25T15:59:48.888Z,457.95
2022-12-25T16:02:20.807Z,464.63
2022-12-25T16:04:51.191Z,374.10
2022-12-25T16:07:25.114Z,211.55
2022-12-25T16:09:52.780Z,137.70
2022-12-25T16:12:20.675Z,191.10
2022-12-25T16:14:48.384Z,170.95
2022-12-25T16:17:16.250Z,203.80
2022-12-25T16:19:44.947Z,181.63
2022-12-25T16:22:18.551Z,227.27
2022-12-25T16:24:50.829Z,188.40
2022-12-25T16:27:18.647Z,216.93
2022-12-25T16:29:46.300Z,235.60
2022-12-25T16:32:15.655Z,222.98
2022-12-25T16:34:43.792Z,163.85
2022-12-25T16:37:11.459Z,137.05
2022-12-25T16:39:39.505Z,198.90
2022-12-25T16:42:09.146Z,196.48
2022-12-25T16:44:46.337Z,156.80
2022-12-25T16:47:16.208Z,115.55
2022-12-25T16:49:45.264Z,93.50
2022-12-25T16:52:14.258Z,73.40
2022-12-25T16:54:42.717Z,52.72
2022-12-25T16:57:14.086Z,52.47
2022-12-25T16:59:43.476Z,42.85
2022-12-25T17:02:20.534Z,34.65
2022-12-25T17:04:48.863Z,39.75
2022-12-25T17:07:18.348Z,44.72
2022-12-25T17:09:50.134Z,48.25
2022-12-25T17:12:18.089Z,44.92
2022-12-25T17:14:45.815Z,30.27
2022-12-25T17:17:13.572Z,23.30
2022-12-25T17:19:41.927Z,34.15
2022-12-25T17:22:09.703Z,40.33
2022-12-25T17:24:40.126Z,34.50
2022-12-25T17:27:09.358Z,32.53
2022-12-25T17:29:39.916Z,54.55
2022-12-25T17:32:08.946Z,37.42
2022-12-25T17:34:37.959Z,30.65
2022-12-25T17:37:06.096Z,45.25
2022-12-25T17:39:33.805Z,42.35
2022-12-25T17:42:01.481Z,32.63
2022-12-25T17:44:29.181Z,36.08
2022-12-25T17:46:57.154Z,35.45
2022-12-25T17:49:25.944Z,31.70
2022-12-25T17:52:03.456Z,34.42
2022-12-25T17:54:33.554Z,39.72
2022-12-25T17:57:01.700Z,23.95
2022-12-25T17:59:30.443Z,26.02
2022-12-25T18:01:59.067Z,27.92
2022-12-25T18:04:27.597Z,28.27
2022-12-25T18:06:56.324Z,23.00
2022-12-25T18:09:24.956Z,25.38
2022-12-25T18:11:53.806Z,25.15
2022-12-25T18:14:22.881Z,47.33
2022-12-25T18:16:52.747Z,131.65
2022-12-25T18:19:21.380Z,137.48
2022-12-25T18:21:51.844Z,92.20
2022-12-25T18:24:20.586Z,47.08
2022-12-25T18:26:51.053Z,46.65
2022-12-25T18:29:19.949Z,35.17
2022-12-25T18:31:53.774Z,37.08
2022-12-25T18:34:23.605Z,98.72
2022-12-25T18:36:51.384Z,105.65
2022-12-25T18:39:19.475Z,76.50
2022-12-25T18:42:07.552Z,71.43
2022-12-25T18:44:35.399Z,44.78
2022-12-25T18:47:03.526Z,99.13
2022-12-25T18:49:32.618Z,83.20
2022-12-25T18:52:49.976Z,62.95
2022-12-25T18:54:48.779Z,52.90
2022-12-25T18:57:17.096Z,63.80
2022-12-25T18:59:44.940Z,36.38
2022-12-25T19:02:14.885Z,39.83
2022-12-25T19:04:46.503Z,47.70
2022-12-25T19:09:41.968Z,108.70
2022-12-25T19:12:09.716Z,122.35
2022-12-25T19:14:47.417Z,93.95
2022-12-25T19:17:18.031Z,83.25
2022-12-25T19:19:46.318Z,71.68
2022-12-25T19:22:14.437Z,93.95
2022-12-25T19:24:42.388Z,75.18
2022-12-25T19:27:10.121Z,50.38
2022-12-25T19:29:38.094Z,74.43
2022-12-25T19:32:06.046Z,62.22
2022-12-25T19:34:33.756Z,90.20
2022-12-25T19:37:01.459Z,55.85
2022-12-25T19:39:29.592Z,35.50
2022-12-25T19:41:58.839Z,40.75
2022-12-25T19:44:26.873Z,36.45
2022-12-25T19:46:55.913Z,34.60
2022-12-25T19:49:25.215Z,40.40
2022-12-25T19:51:55.139Z,33.85
2022-12-25T19:54:23.025Z,41.15
2022-12-25T19:56:50.735Z,39.40
2022-12-25T19:59:18.487Z,34.55
2022-12-25T20:01:46.351Z,27.40
2022-12-25T20:04:21.900Z,21.73
2022-12-25T20:06:49.880Z,27.75
2022-12-25T20:09:21.451Z,32.50
2022-12-25T20:11:54.720Z,53.05
2022-12-25T20:14:30.259Z,42.60
2022-12-25T20:16:58.892Z,45.35
2022-12-25T20:19:31.752Z,38.80
2022-12-25T20:22:01.396Z,93.88
2022-12-25T20:24:30.979Z,57.97
2022-12-25T20:26:59.717Z,60.97
2022-12-25T20:29:28.712Z,73.35
2022-12-25T20:31:56.664Z,75.72
2022-12-25T20:34:26.799Z,73.53
2022-12-25T20:36:55.539Z,80.10
2022-12-25T20:39:24.787Z,70.65
2022-12-25T20:41:52.761Z,75.43
2022-12-25T20:44:20.668Z,74.80
2022-12-25T20:46:48.374Z,77.20
2022-12-25T20:49:16.993Z,103.40
2022-12-25T20:51:45.015Z,114.05
2022-12-25T20:54:15.514Z,138.70
2022-12-25T20:56:44.308Z,138.73
2022-12-25T20:59:12.710Z,144.00
2022-12-25T21:01:41.775Z,116.35
2022-12-25T21:04:15.905Z,99.20
2022-12-25T21:06:44.368Z,455.63
2022-12-25T21:09:13.191Z,306.45
2022-12-25T21:11:42.147Z,166.38
2022-12-25T21:14:11.009Z,106.35
2022-12-25T21:16:40.315Z,86.97
2022-12-25T21:19:09.583Z,184.02
2022-12-25T21:21:44.318Z,152.75
2022-12-25T21:24:13.154Z,253.77
2022-12-25T21:26:47.799Z,183.68
2022-12-25T21:29:18.310Z,122.88
2022-12-25T21:32:04.534Z,117.35
2022-12-25T21:34:33.078Z,232.55
2022-12-25T21:37:02.007Z,165.27
2022-12-25T21:39:30.660Z,169.05
2022-12-25T21:42:00.615Z,164.27
2022-12-25T21:44:29.468Z,110.43
2022-12-25T21:46:57.402Z,138.25
2022-12-25T21:49:43.704Z,255.80
2022-12-25T21:52:12.495Z,217.27
2022-12-25T21:54:40.844Z,183.20
2022-12-25T21:57:08.574Z,173.32
2022-12-25T21:59:36.802Z,177.38
2022-12-25T22:02:11.776Z,137.00
2022-12-25T22:04:40.539Z,144.32
2022-12-25T22:07:19.617Z,124.70
2022-12-25T22:09:51.784Z,135.90
2022-12-25T22:12:40.801Z,122.95
2022-12-25T22:15:10.727Z,109.93
2022-12-25T22:18:01.714Z,100.60
2022-12-25T22:20:38.183Z,90.93
2022-12-25T22:23:06.207Z,74.22
2022-12-25T22:25:34.077Z,59.70
2022-12-25T22:28:01.766Z,210.98
2022-12-25T22:30:30.202Z,132.25
2022-12-25T22:32:58.371Z,93.88
2022-12-25T22:35:26.221Z,82.95
2022-12-25T22:37:54.461Z,130.45
2022-12-25T22:40:22.358Z,105.57
2022-12-25T22:42:53.972Z,132.93
2022-12-25T22:45:22.181Z,105.80
2022-12-25T22:47:50.370Z,102.18
2022-12-25T22:50:18.904Z,74.55
2022-12-25T22:52:47.308Z,48.88
2022-12-25T22:55:19.463Z,81.35
2022-12-25T22:57:47.281Z,108.38
2022-12-25T23:00:15.387Z,95.18
2022-12-25T23:02:43.497Z,107.65
2022-12-25T23:05:11.600Z,103.10
2022-12-25T23:07:39.336Z,80.82
2022-12-25T23:10:08.425Z,75.05
2022-12-25T23:12:54.652Z,71.18
2022-12-25T23:15:22.752Z,53.33
2022-12-25T23:18:08.919Z,36.83
2022-12-25T23:20:56.197Z,28.88
2022-12-25T23:23:42.784Z,32.80
2022-12-25T23:26:11.091Z,97.72
2022-12-25T23:29:00.285Z,99.47
2022-12-25T23:31:36.695Z,89.70
2022-12-25T23:34:07.094Z,71.32
2022-12-25T23:36:35.365Z,84.53
2022-12-25T23:39:09.774Z,75.78
2022-12-25T23:41:41.526Z,62.22
2022-12-25T23:46:40.700Z,79.53
2022-12-25T23:49:10.352Z,74.25
2022-12-25T23:51:45.926Z,105.43
2022-12-25T23:54:18.128Z,73.25
2022-12-25T23:56:46.510Z,69.20
2022-12-25T23:59:15.499Z,84.13
